sensor_id;sensor_type;location;lat;lon;timestamp;pressure;altitude;pressure_sealevel;temperature;humidity
64388;BME280;50709;52.648;4.764;2023-06-14T00:01:11;101703.13;;;23.58;45.17
64388;BME280;50709;52.648;4.764;2023-06-14T00:03:38;101705.94;;;23.54;44.35
64388;BME280;50709;52.648;4.764;2023-06-14T00:06:04;101709.38;;;23.33;45.29
64388;BME280;50709;52.648;4.764;2023-06-14T00:08:30;101696.63;;;23.18;44.88
64388;BME280;50709;52.648;4.764;2023-06-14T00:10:55;101701.44;;;23.56;44.40
64388;BME280;50709;52.648;4.764;2023-06-14T00:13:21;101697.44;;;23.90;43.33
64388;BME280;50709;52.648;4.764;2023-06-14T00:15:46;101695.59;;;23.68;43.64
64388;BME280;50709;52.648;4.764;2023-06-14T00:18:13;101694.34;;;23.07;43.70
64388;BME280;50709;52.648;4.764;2023-06-14T00:20:38;101698.53;;;23.14;43.92
64388;BME280;50709;52.648;4.764;2023-06-14T00:23:04;101695.59;;;23.46;43.58
64388;BME280;50709;52.648;4.764;2023-06-14T00:25:30;101693.31;;;23.59;43.57
64388;BME280;50709;52.648;4.764;2023-06-14T00:27:56;101688.63;;;23.18;42.43
64388;BME280;50709;52.648;4.764;2023-06-14T00:30:22;101697.50;;;23.42;43.61
64388;BME280;50709;52.648;4.764;2023-06-14T00:32:48;101697.38;;;23.45;43.76
64388;BME280;50709;52.648;4.764;2023-06-14T00:35:13;101702.97;;;23.39;43.63
64388;BME280;50709;52.648;4.764;2023-06-14T00:37:39;101676.59;;;23.06;45.30
64388;BME280;50709;52.648;4.764;2023-06-14T00:40:05;101690.84;;;23.30;43.94
64388;BME280;50709;52.648;4.764;2023-06-14T00:42:31;101699.88;;;23.26;44.01
64388;BME280;50709;52.648;4.764;2023-06-14T00:44:57;101686.97;;;23.39;43.23
64388;BME280;50709;52.648;4.764;2023-06-14T00:47:23;101705.25;;;22.99;43.49
64388;BME280;50709;52.648;4.764;2023-06-14T00:49:53;101704.50;;;23.45;43.01
64388;BME280;50709;52.648;4.764;2023-06-14T00:52:19;101700.16;;;23.18;43.59
64388;BME280;50709;52.648;4.764;2023-06-14T00:54:44;101708.66;;;23.52;43.33
64388;BME280;50709;52.648;4.764;2023-06-14T00:57:10;101706.22;;;22.73;42.71
64388;BME280;50709;52.648;4.764;2023-06-14T00:59:45;101707.59;;;23.34;43.86
64388;BME280;50709;52.648;4.764;2023-06-14T01:02:12;101706.25;;;22.97;43.99
64388;BME280;50709;52.648;4.764;2023-06-14T01:04:42;101695.59;;;23.22;42.43
64388;BME280;50709;52.648;4.764;2023-06-14T01:12:44;101698.03;;;22.78;41.92
64388;BME280;50709;52.648;4.764;2023-06-14T01:15:05;101686.09;;;22.64;44.19
64388;BME280;50709;52.648;4.764;2023-06-14T01:17:31;101702.28;;;22.83;42.83
64388;BME280;50709;52.648;4.764;2023-06-14T01:20:00;101681.81;;;22.85;43.72
64388;BME280;50709;52.648;4.764;2023-06-14T01:22:26;101688.00;;;22.34;43.55
64388;BME280;50709;52.648;4.764;2023-06-14T01:24:52;101685.53;;;22.55;44.37
64388;BME280;50709;52.648;4.764;2023-06-14T01:27:22;101682.38;;;22.94;45.37
64388;BME280;50709;52.648;4.764;2023-06-14T01:29:51;101695.63;;;22.72;42.39
64388;BME280;50709;52.648;4.764;2023-06-14T01:32:18;101689.56;;;22.41;42.93
64388;BME280;50709;52.648;4.764;2023-06-14T01:34:44;101686.16;;;22.63;43.44
64388;BME280;50709;52.648;4.764;2023-06-14T01:37:10;101691.47;;;22.88;42.81
64388;BME280;50709;52.648;4.764;2023-06-14T01:39:36;101700.28;;;23.15;42.80
64388;BME280;50709;52.648;4.764;2023-06-14T01:42:03;101695.69;;;22.16;43.79
64388;BME280;50709;52.648;4.764;2023-06-14T01:44:30;101706.13;;;22.49;43.68
64388;BME280;50709;52.648;4.764;2023-06-14T01:46:56;101704.63;;;23.18;42.95
64388;BME280;50709;52.648;4.764;2023-06-14T01:49:22;101682.78;;;22.83;43.79
64388;BME280;50709;52.648;4.764;2023-06-14T01:51:48;101693.50;;;23.05;43.31
64388;BME280;50709;52.648;4.764;2023-06-14T01:54:13;101698.09;;;22.76;42.84
64388;BME280;50709;52.648;4.764;2023-06-14T01:56:39;101706.91;;;22.78;42.74
64388;BME280;50709;52.648;4.764;2023-06-14T01:59:04;101705.19;;;23.01;43.17
64388;BME280;50709;52.648;4.764;2023-06-14T02:01:30;101711.09;;;22.85;44.37
64388;BME280;50709;52.648;4.764;2023-06-14T02:03:56;101677.69;;;22.51;42.41
64388;BME280;50709;52.648;4.764;2023-06-14T02:06:21;101707.94;;;22.49;43.56
64388;BME280;50709;52.648;4.764;2023-06-14T02:08:46;101689.72;;;22.62;43.78
64388;BME280;50709;52.648;4.764;2023-06-14T02:11:12;101704.25;;;22.78;44.18
64388;BME280;50709;52.648;4.764;2023-06-14T02:13:37;101693.88;;;22.71;43.77
64388;BME280;50709;52.648;4.764;2023-06-14T02:16:03;101699.09;;;22.47;43.91
64388;BME280;50709;52.648;4.764;2023-06-14T02:18:28;101690.16;;;22.49;43.22
64388;BME280;50709;52.648;4.764;2023-06-14T02:20:54;101691.41;;;22.39;44.51
64388;BME280;50709;52.648;4.764;2023-06-14T02:23:19;101702.34;;;22.57;43.36
64388;BME280;50709;52.648;4.764;2023-06-14T02:25:45;101704.16;;;22.28;44.37
64388;BME280;50709;52.648;4.764;2023-06-14T02:28:11;101695.47;;;22.49;44.58
64388;BME280;50709;52.648;4.764;2023-06-14T02:30:37;101667.50;;;22.38;43.00
64388;BME280;50709;52.648;4.764;2023-06-14T02:33:02;101698.94;;;22.25;43.32
64388;BME280;50709;52.648;4.764;2023-06-14T02:35:28;101697.56;;;22.13;44.54
64388;BME280;50709;52.648;4.764;2023-06-14T02:37:53;101700.38;;;22.08;43.98
64388;BME280;50709;52.648;4.764;2023-06-14T02:40:19;101702.41;;;22.27;43.60
64388;BME280;50709;52.648;4.764;2023-06-14T02:42:45;101696.22;;;22.26;44.94
64388;BME280;50709;52.648;4.764;2023-06-14T02:45:11;101689.88;;;22.04;45.24
64388;BME280;50709;52.648;4.764;2023-06-14T02:47:36;101698.88;;;22.26;43.93
64388;BME280;50709;52.648;4.764;2023-06-14T02:50:02;101706.03;;;21.97;44.36
64388;BME280;50709;52.648;4.764;2023-06-14T02:52:28;101703.66;;;21.60;44.75
64388;BME280;50709;52.648;4.764;2023-06-14T02:54:53;101695.59;;;21.63;45.16
64388;BME280;50709;52.648;4.764;2023-06-14T02:57:20;101708.03;;;21.62;44.68
64388;BME280;50709;52.648;4.764;2023-06-14T02:59:45;101667.13;;;21.66;46.61
64388;BME280;50709;52.648;4.764;2023-06-14T03:02:11;101719.06;;;21.78;45.24
64388;BME280;50709;52.648;4.764;2023-06-14T03:04:36;101679.78;;;21.58;44.95
64388;BME280;50709;52.648;4.764;2023-06-14T03:07:06;101716.22;;;21.55;45.58
64388;BME280;50709;52.648;4.764;2023-06-14T03:09:37;101714.59;;;21.79;44.38
64388;BME280;50709;52.648;4.764;2023-06-14T03:12:03;101710.06;;;21.82;45.31
64388;BME280;50709;52.648;4.764;2023-06-14T03:14:29;101725.34;;;21.74;46.64
64388;BME280;50709;52.648;4.764;2023-06-14T03:16:56;101711.19;;;21.44;45.96
64388;BME280;50709;52.648;4.764;2023-06-14T03:19:22;101707.41;;;21.21;46.43
64388;BME280;50709;52.648;4.764;2023-06-14T03:21:48;101724.94;;;21.60;45.21
64388;BME280;50709;52.648;4.764;2023-06-14T03:24:14;101743.44;;;22.20;44.81
64388;BME280;50709;52.648;4.764;2023-06-14T03:26:42;101742.34;;;21.98;45.32
64388;BME280;50709;52.648;4.764;2023-06-14T03:29:07;101746.00;;;21.66;45.84
64388;BME280;50709;52.648;4.764;2023-06-14T03:31:34;101737.59;;;21.48;45.80
64388;BME280;50709;52.648;4.764;2023-06-14T03:34:00;101731.03;;;21.92;45.76
64388;BME280;50709;52.648;4.764;2023-06-14T03:36:26;101750.81;;;21.83;45.85
64388;BME280;50709;52.648;4.764;2023-06-14T03:38:53;101746.19;;;21.60;45.66
64388;BME280;50709;52.648;4.764;2023-06-14T03:41:18;101745.78;;;21.42;45.33
64388;BME280;50709;52.648;4.764;2023-06-14T03:43:44;101749.59;;;21.65;46.75
64388;BME280;50709;52.648;4.764;2023-06-14T03:46:09;101759.06;;;22.02;46.39
64388;BME280;50709;52.648;4.764;2023-06-14T03:48:35;101753.16;;;21.31;46.71
64388;BME280;50709;52.648;4.764;2023-06-14T03:51:00;101763.97;;;21.58;46.70
64388;BME280;50709;52.648;4.764;2023-06-14T03:53:26;101753.31;;;21.26;46.42
64388;BME280;50709;52.648;4.764;2023-06-14T03:55:53;101757.72;;;20.94;47.71
64388;BME280;50709;52.648;4.764;2023-06-14T03:58:19;101763.91;;;21.59;46.75
64388;BME280;50709;52.648;4.764;2023-06-14T04:00:45;101760.19;;;21.33;47.86
64388;BME280;50709;52.648;4.764;2023-06-14T04:03:10;101756.53;;;21.06;47.74
64388;BME280;50709;52.648;4.764;2023-06-14T04:05:38;101768.63;;;20.83;47.40
64388;BME280;50709;52.648;4.764;2023-06-14T04:08:07;101775.16;;;21.36;47.49
64388;BME280;50709;52.648;4.764;2023-06-14T04:10:34;101761.88;;;21.36;47.56
64388;BME280;50709;52.648;4.764;2023-06-14T04:12:59;101775.78;;;21.46;46.35
64388;BME280;50709;52.648;4.764;2023-06-14T04:15:25;101778.94;;;21.29;48.18
64388;BME280;50709;52.648;4.764;2023-06-14T04:17:53;101780.13;;;21.17;47.74
64388;BME280;50709;52.648;4.764;2023-06-14T04:20:22;101768.59;;;21.49;47.99
64388;BME280;50709;52.648;4.764;2023-06-14T04:22:49;101762.88;;;21.00;47.78
64388;BME280;50709;52.648;4.764;2023-06-14T04:25:15;101786.00;;;21.30;48.55
64388;BME280;50709;52.648;4.764;2023-06-14T04:27:40;101773.97;;;21.16;47.46
64388;BME280;50709;52.648;4.764;2023-06-14T04:30:07;101788.91;;;21.52;46.75
64388;BME280;50709;52.648;4.764;2023-06-14T04:32:33;101775.81;;;20.80;47.49
64388;BME280;50709;52.648;4.764;2023-06-14T04:34:59;101785.31;;;20.89;48.09
64388;BME280;50709;52.648;4.764;2023-06-14T04:37:27;101780.56;;;21.02;48.16
64388;BME280;50709;52.648;4.764;2023-06-14T04:39:54;101786.72;;;21.35;48.70
64388;BME280;50709;52.648;4.764;2023-06-14T04:42:21;101782.00;;;21.13;47.48
64388;BME280;50709;52.648;4.764;2023-06-14T04:44:50;101793.50;;;21.14;48.84
64388;BME280;50709;52.648;4.764;2023-06-14T04:47:16;101787.47;;;21.07;47.58
64388;BME280;50709;52.648;4.764;2023-06-14T04:49:42;101788.16;;;21.15;49.16
64388;BME280;50709;52.648;4.764;2023-06-14T04:52:08;101782.59;;;20.90;48.15
64388;BME280;50709;52.648;4.764;2023-06-14T04:54:38;101787.28;;;21.46;47.80
64388;BME280;50709;52.648;4.764;2023-06-14T04:57:06;101790.47;;;21.61;48.30
64388;BME280;50709;52.648;4.764;2023-06-14T04:59:31;101793.19;;;21.58;47.25
64388;BME280;50709;52.648;4.764;2023-06-14T05:02:02;101770.75;;;20.33;48.68
64388;BME280;50709;52.648;4.764;2023-06-14T05:04:27;101781.84;;;21.51;47.62
64388;BME280;50709;52.648;4.764;2023-06-14T05:06:53;101793.97;;;21.30;49.21
64388;BME280;50709;52.648;4.764;2023-06-14T05:09:20;101792.72;;;21.43;46.47
64388;BME280;50709;52.648;4.764;2023-06-14T05:11:46;101776.63;;;21.48;47.97
64388;BME280;50709;52.648;4.764;2023-06-14T05:14:13;101801.84;;;21.33;47.13
64388;BME280;50709;52.648;4.764;2023-06-14T05:16:39;101797.44;;;21.65;47.82
64388;BME280;50709;52.648;4.764;2023-06-14T05:19:05;101788.72;;;20.94;47.68
64388;BME280;50709;52.648;4.764;2023-06-14T05:21:31;101798.56;;;21.23;48.29
64388;BME280;50709;52.648;4.764;2023-06-14T05:23:58;101797.09;;;22.06;46.23
64388;BME280;50709;52.648;4.764;2023-06-14T05:26:24;101797.19;;;22.02;47.39
64388;BME280;50709;52.648;4.764;2023-06-14T05:28:54;101796.22;;;21.44;48.10
64388;BME280;50709;52.648;4.764;2023-06-14T05:31:22;101804.72;;;21.57;47.78
64388;BME280;50709;52.648;4.764;2023-06-14T05:33:47;101803.22;;;21.15;48.36
64388;BME280;50709;52.648;4.764;2023-06-14T05:36:13;101805.06;;;21.44;47.36
64388;BME280;50709;52.648;4.764;2023-06-14T05:38:38;101800.63;;;21.45;48.08
64388;BME280;50709;52.648;4.764;2023-06-14T05:41:04;101802.06;;;21.88;47.30
64388;BME280;50709;52.648;4.764;2023-06-14T05:43:30;101801.75;;;21.99;46.60
64388;BME280;50709;52.648;4.764;2023-06-14T05:45:55;101809.63;;;21.72;45.79
64388;BME280;50709;52.648;4.764;2023-06-14T05:48:20;101798.13;;;21.39;47.27
64388;BME280;50709;52.648;4.764;2023-06-14T05:51:06;101805.63;;;21.57;47.36
64388;BME280;50709;52.648;4.764;2023-06-14T05:53:34;101809.84;;;22.23;45.71
64388;BME280;50709;52.648;4.764;2023-06-14T05:55:59;101804.81;;;22.15;45.07
64388;BME280;50709;52.648;4.764;2023-06-14T05:58:25;101798.06;;;22.03;46.12
64388;BME280;50709;52.648;4.764;2023-06-14T06:00:50;101789.03;;;21.79;45.98
64388;BME280;50709;52.648;4.764;2023-06-14T06:03:19;101811.59;;;21.95;45.63
64388;BME280;50709;52.648;4.764;2023-06-14T06:05:46;101825.44;;;22.37;44.75
64388;BME280;50709;52.648;4.764;2023-06-14T06:08:11;101807.94;;;22.28;45.20
64388;BME280;50709;52.648;4.764;2023-06-14T06:10:37;101822.03;;;22.87;44.26
64388;BME280;50709;52.648;4.764;2023-06-14T06:13:02;101824.47;;;22.09;44.98
64388;BME280;50709;52.648;4.764;2023-06-14T06:15:29;101814.38;;;22.21;44.96
64388;BME280;50709;52.648;4.764;2023-06-14T06:17:54;101842.09;;;22.97;43.77
64388;BME280;50709;52.648;4.764;2023-06-14T06:20:20;101818.47;;;22.86;43.82
64388;BME280;50709;52.648;4.764;2023-06-14T06:22:46;101805.16;;;22.02;44.73
64388;BME280;50709;52.648;4.764;2023-06-14T06:25:12;101831.72;;;22.04;45.08
64388;BME280;50709;52.648;4.764;2023-06-14T06:27:38;101822.03;;;22.87;44.29
64388;BME280;50709;52.648;4.764;2023-06-14T06:30:24;101822.66;;;22.68;43.25
64388;BME280;50709;52.648;4.764;2023-06-14T06:32:51;101828.94;;;22.92;43.37
64388;BME280;50709;52.648;4.764;2023-06-14T06:35:17;101829.97;;;23.15;43.57
64388;BME280;50709;52.648;4.764;2023-06-14T06:37:43;101825.06;;;23.77;42.12
64388;BME280;50709;52.648;4.764;2023-06-14T06:40:09;101833.00;;;23.29;42.43
64388;BME280;50709;52.648;4.764;2023-06-14T06:42:35;101816.72;;;23.13;42.13
64388;BME280;50709;52.648;4.764;2023-06-14T06:45:01;101803.72;;;23.53;41.80
64388;BME280;50709;52.648;4.764;2023-06-14T06:47:26;101824.09;;;23.04;43.37
64388;BME280;50709;52.648;4.764;2023-06-14T06:49:52;101831.28;;;23.28;42.68
64388;BME280;50709;52.648;4.764;2023-06-14T06:52:18;101822.94;;;23.12;42.92
64388;BME280;50709;52.648;4.764;2023-06-14T06:54:43;101837.03;;;22.89;43.77
64388;BME280;50709;52.648;4.764;2023-06-14T06:57:09;101816.81;;;23.35;41.91
64388;BME280;50709;52.648;4.764;2023-06-14T06:59:36;101832.41;;;23.21;41.92
64388;BME280;50709;52.648;4.764;2023-06-14T07:02:01;101844.25;;;23.87;41.64
64388;BME280;50709;52.648;4.764;2023-06-14T07:04:26;101850.78;;;23.02;43.10
64388;BME280;50709;52.648;4.764;2023-06-14T07:06:54;101860.28;;;22.84;42.55
64388;BME280;50709;52.648;4.764;2023-06-14T07:09:39;101853.06;;;23.14;42.35
64388;BME280;50709;52.648;4.764;2023-06-14T07:12:08;101858.69;;;23.32;42.62
64388;BME280;50709;52.648;4.764;2023-06-14T07:14:34;101869.88;;;22.90;42.31
64388;BME280;50709;52.648;4.764;2023-06-14T07:17:26;101856.19;;;23.27;41.64
64388;BME280;50709;52.648;4.764;2023-06-14T07:19:52;101838.25;;;23.06;41.97
64388;BME280;50709;52.648;4.764;2023-06-14T07:22:18;101850.84;;;24.01;41.63
64388;BME280;50709;52.648;4.764;2023-06-14T07:24:44;101865.69;;;23.60;40.86
64388;BME280;50709;52.648;4.764;2023-06-14T07:27:09;101876.34;;;23.34;40.84
64388;BME280;50709;52.648;4.764;2023-06-14T07:29:36;101867.13;;;24.17;41.36
64388;BME280;50709;52.648;4.764;2023-06-14T07:32:03;101852.53;;;23.79;40.33
64388;BME280;50709;52.648;4.764;2023-06-14T07:34:28;101870.94;;;23.87;41.02
64388;BME280;50709;52.648;4.764;2023-06-14T07:36:54;101875.56;;;23.81;41.00
64388;BME280;50709;52.648;4.764;2023-06-14T07:39:19;101870.22;;;23.81;40.32
64388;BME280;50709;52.648;4.764;2023-06-14T07:41:45;101849.59;;;24.10;40.25
64388;BME280;50709;52.648;4.764;2023-06-14T07:44:31;101881.03;;;23.78;40.64
64388;BME280;50709;52.648;4.764;2023-06-14T07:46:57;101864.78;;;23.84;40.30
64388;BME280;50709;52.648;4.764;2023-06-14T07:49:25;101877.03;;;24.60;40.45
64388;BME280;50709;52.648;4.764;2023-06-14T07:51:50;101880.13;;;24.27;40.21
64388;BME280;50709;52.648;4.764;2023-06-14T07:54:19;101875.84;;;24.23;41.46
64388;BME280;50709;52.648;4.764;2023-06-14T07:56:52;101880.28;;;24.22;40.68
64388;BME280;50709;52.648;4.764;2023-06-14T07:59:18;101878.50;;;23.99;39.94
64388;BME280;50709;52.648;4.764;2023-06-14T08:01:43;101892.28;;;24.10;40.45
64388;BME280;50709;52.648;4.764;2023-06-14T08:04:13;101889.81;;;23.80;40.88
64388;BME280;50709;52.648;4.764;2023-06-14T08:06:39;101883.34;;;24.35;40.00
64388;BME280;50709;52.648;4.764;2023-06-14T08:09:04;101881.31;;;23.96;40.33
64388;BME280;50709;52.648;4.764;2023-06-14T08:11:31;101891.31;;;24.37;40.39
64388;BME280;50709;52.648;4.764;2023-06-14T08:13:56;101894.50;;;23.99;40.35
64388;BME280;50709;52.648;4.764;2023-06-14T08:16:22;101891.56;;;24.07;38.98
64388;BME280;50709;52.648;4.764;2023-06-14T08:18:48;101896.97;;;24.05;40.93
64388;BME280;50709;52.648;4.764;2023-06-14T08:21:14;101881.69;;;24.32;40.39
64388;BME280;50709;52.648;4.764;2023-06-14T08:23:40;101888.75;;;24.56;39.32
64388;BME280;50709;52.648;4.764;2023-06-14T08:26:08;101891.44;;;24.33;39.62
64388;BME280;50709;52.648;4.764;2023-06-14T08:28:34;101896.00;;;24.30;39.54
64388;BME280;50709;52.648;4.764;2023-06-14T08:30:59;101893.78;;;24.41;39.82
64388;BME280;50709;52.648;4.764;2023-06-14T08:33:25;101891.50;;;24.54;39.42
64388;BME280;50709;52.648;4.764;2023-06-14T08:35:50;101891.56;;;24.97;38.87
64388;BME280;50709;52.648;4.764;2023-06-14T08:38:16;101892.50;;;24.51;40.25
64388;BME280;50709;52.648;4.764;2023-06-14T08:40:41;101885.50;;;24.93;40.36
64388;BME280;50709;52.648;4.764;2023-06-14T08:43:07;101900.84;;;23.96;40.38
64388;BME280;50709;52.648;4.764;2023-06-14T08:45:33;101912.84;;;24.08;40.84
64388;BME280;50709;52.648;4.764;2023-06-14T08:47:59;101894.88;;;24.59;39.09
64388;BME280;50709;52.648;4.764;2023-06-14T08:50:25;101895.94;;;24.53;39.54
64388;BME280;50709;52.648;4.764;2023-06-14T08:52:54;101885.97;;;24.59;40.05
64388;BME280;50709;52.648;4.764;2023-06-14T08:55:21;101893.75;;;24.87;38.34
64388;BME280;50709;52.648;4.764;2023-06-14T08:57:51;101861.84;;;24.60;38.63
64388;BME280;50709;52.648;4.764;2023-06-14T09:00:19;101891.22;;;25.05;37.89
64388;BME280;50709;52.648;4.764;2023-06-14T09:02:46;101888.09;;;24.95;38.19
64388;BME280;50709;52.648;4.764;2023-06-14T09:05:11;101879.69;;;25.25;37.93
64388;BME280;50709;52.648;4.764;2023-06-14T09:07:44;101892.50;;;24.74;37.37
64388;BME280;50709;52.648;4.764;2023-06-14T09:10:11;101868.25;;;25.00;38.36
64388;BME280;50709;52.648;4.764;2023-06-14T09:12:37;101882.59;;;24.98;36.50
64388;BME280;50709;52.648;4.764;2023-06-14T09:15:04;101863.22;;;24.93;37.88
64388;BME280;50709;52.648;4.764;2023-06-14T09:17:35;101911.59;;;24.87;35.39
64388;BME280;50709;52.648;4.764;2023-06-14T09:20:04;101888.31;;;25.11;35.52
64388;BME280;50709;52.648;4.764;2023-06-14T09:22:34;101903.88;;;25.64;35.89
64388;BME280;50709;52.648;4.764;2023-06-14T09:25:00;101872.41;;;24.41;35.77
64388;BME280;50709;52.648;4.764;2023-06-14T09:27:26;101902.53;;;25.54;36.00
64388;BME280;50709;52.648;4.764;2023-06-14T09:29:52;101902.06;;;25.84;35.26
64388;BME280;50709;52.648;4.764;2023-06-14T09:32:21;101877.91;;;25.66;36.61
64388;BME280;50709;52.648;4.764;2023-06-14T09:34:47;101904.06;;;25.60;35.46
64388;BME280;50709;52.648;4.764;2023-06-14T09:37:12;101896.88;;;25.60;33.99
64388;BME280;50709;52.648;4.764;2023-06-14T09:39:50;101890.94;;;25.74;35.03
64388;BME280;50709;52.648;4.764;2023-06-14T09:42:17;101911.47;;;25.53;34.67
64388;BME280;50709;52.648;4.764;2023-06-14T09:44:47;101865.94;;;25.13;33.51
64388;BME280;50709;52.648;4.764;2023-06-14T09:47:32;101905.28;;;25.92;32.97
64388;BME280;50709;52.648;4.764;2023-06-14T09:49:58;101902.41;;;25.97;32.26
64388;BME280;50709;52.648;4.764;2023-06-14T09:52:25;101906.72;;;25.99;32.23
64388;BME280;50709;52.648;4.764;2023-06-14T09:54:52;101881.69;;;26.00;31.46
64388;BME280;50709;52.648;4.764;2023-06-14T09:57:26;101886.50;;;26.13;33.86
64388;BME280;50709;52.648;4.764;2023-06-14T10:00:32;101907.47;;;26.60;31.88
64388;BME280;50709;52.648;4.764;2023-06-14T10:03:21;101910.53;;;26.33;30.76
64388;BME280;50709;52.648;4.764;2023-06-14T10:05:51;101902.19;;;25.41;32.44
64388;BME280;50709;52.648;4.764;2023-06-14T10:08:37;101908.94;;;25.90;32.31
64388;BME280;50709;52.648;4.764;2023-06-14T10:11:05;101914.31;;;25.90;30.97
64388;BME280;50709;52.648;4.764;2023-06-14T10:13:32;101911.28;;;25.97;31.65
64388;BME280;50709;52.648;4.764;2023-06-14T10:16:12;101902.50;;;25.94;29.55
64388;BME280;50709;52.648;4.764;2023-06-14T10:19:00;101911.03;;;25.83;30.09
64388;BME280;50709;52.648;4.764;2023-06-14T10:24:15;101916.75;;;26.15;30.00
64388;BME280;50709;52.648;4.764;2023-06-14T10:26:54;101923.25;;;25.89;29.94
64388;BME280;50709;52.648;4.764;2023-06-14T10:29:22;101901.44;;;25.58;30.36
64388;BME280;50709;52.648;4.764;2023-06-14T10:31:49;101906.34;;;25.88;30.26
64388;BME280;50709;52.648;4.764;2023-06-14T10:34:29;101889.78;;;25.80;30.01
64388;BME280;50709;52.648;4.764;2023-06-14T10:37:04;101906.41;;;26.26;31.18
64388;BME280;50709;52.648;4.764;2023-06-14T10:39:41;101897.88;;;26.18;32.54
64388;BME280;50709;52.648;4.764;2023-06-14T10:42:08;101919.56;;;26.50;31.62
64388;BME280;50709;52.648;4.764;2023-06-14T10:47:24;101880.28;;;26.68;31.79
64388;BME280;50709;52.648;4.764;2023-06-14T10:49:53;101889.53;;;26.43;32.03
64388;BME280;50709;52.648;4.764;2023-06-14T10:52:27;101914.44;;;27.01;32.08
64388;BME280;50709;52.648;4.764;2023-06-14T10:55:14;101916.53;;;26.58;32.27
64388;BME280;50709;52.648;4.764;2023-06-14T10:57:45;101889.66;;;26.59;31.39
64388;BME280;50709;52.648;4.764;2023-06-14T11:00:13;101921.00;;;26.76;32.53
64388;BME280;50709;52.648;4.764;2023-06-14T11:11:10;101899.59;;;27.29;30.86
64388;BME280;50709;52.648;4.764;2023-06-14T11:13:39;101895.09;;;26.77;30.30
64388;BME280;50709;52.648;4.764;2023-06-14T11:16:16;101919.06;;;26.61;30.35
64388;BME280;50709;52.648;4.764;2023-06-14T11:18:42;101908.06;;;26.67;31.00
64388;BME280;50709;52.648;4.764;2023-06-14T11:21:08;101868.22;;;26.78;33.03
64388;BME280;50709;52.648;4.764;2023-06-14T11:23:37;101901.19;;;27.50;30.25
64388;BME280;50709;52.648;4.764;2023-06-14T11:26:05;101914.06;;;26.72;29.54
64388;BME280;50709;52.648;4.764;2023-06-14T11:28:40;101909.34;;;26.77;30.71
64388;BME280;50709;52.648;4.764;2023-06-14T11:31:27;101910.56;;;27.07;30.07
64388;BME280;50709;52.648;4.764;2023-06-14T11:33:58;101880.19;;;26.71;29.79
64388;BME280;50709;52.648;4.764;2023-06-14T11:36:30;101886.66;;;27.19;30.02
64388;BME280;50709;52.648;4.764;2023-06-14T11:39:16;101896.59;;;26.63;30.30
64388;BME280;50709;52.648;4.764;2023-06-14T11:41:43;101878.69;;;27.35;30.76
64388;BME280;50709;52.648;4.764;2023-06-14T11:44:09;101899.84;;;27.24;29.46
64388;BME280;50709;52.648;4.764;2023-06-14T11:46:35;101868.94;;;27.52;30.94
64388;BME280;50709;52.648;4.764;2023-06-14T11:49:01;101878.38;;;27.93;29.21
64388;BME280;50709;52.648;4.764;2023-06-14T11:51:35;101859.06;;;27.35;27.95
64388;BME280;50709;52.648;4.764;2023-06-14T11:54:02;101889.34;;;27.19;28.52
64388;BME280;50709;52.648;4.764;2023-06-14T11:56:48;101892.66;;;27.07;28.95
64388;BME280;50709;52.648;4.764;2023-06-14T11:59:14;101890.06;;;27.23;28.54
64388;BME280;50709;52.648;4.764;2023-06-14T12:01:42;101891.00;;;27.05;30.93
64388;BME280;50709;52.648;4.764;2023-06-14T12:04:08;101894.41;;;27.43;28.20
64388;BME280;50709;52.648;4.764;2023-06-14T12:06:33;101872.59;;;28.16;29.82
64388;BME280;50709;52.648;4.764;2023-06-14T12:09:21;101887.19;;;27.95;30.98
64388;BME280;50709;52.648;4.764;2023-06-14T12:11:59;101894.47;;;27.07;30.35
64388;BME280;50709;52.648;4.764;2023-06-14T12:14:32;101885.53;;;27.43;32.19
64388;BME280;50709;52.648;4.764;2023-06-14T12:17:07;101894.66;;;27.03;29.92
64388;BME280;50709;52.648;4.764;2023-06-14T12:19:32;101866.94;;;27.89;30.29
64388;BME280;50709;52.648;4.764;2023-06-14T12:22:04;101894.19;;;28.31;29.29
64388;BME280;50709;52.648;4.764;2023-06-14T12:24:31;101883.91;;;28.85;30.06
64388;BME280;50709;52.648;4.764;2023-06-14T12:26:58;101877.88;;;28.18;32.05
64388;BME280;50709;52.648;4.764;2023-06-14T12:29:31;101900.59;;;27.45;30.17
64388;BME280;50709;52.648;4.764;2023-06-14T12:31:59;101862.38;;;27.58;29.68
64388;BME280;50709;52.648;4.764;2023-06-14T12:34:44;101880.38;;;28.53;31.33
64388;BME280;50709;52.648;4.764;2023-06-14T12:37:10;101895.38;;;28.73;30.88
64388;BME280;50709;52.648;4.764;2023-06-14T12:39:35;101886.97;;;28.79;29.39
64388;BME280;50709;52.648;4.764;2023-06-14T12:42:41;101868.94;;;27.68;29.04
64388;BME280;50709;52.648;4.764;2023-06-14T12:45:06;101894.19;;;28.31;29.57
64388;BME280;50709;52.648;4.764;2023-06-14T12:47:33;101887.94;;;29.09;29.78
64388;BME280;50709;52.648;4.764;2023-06-14T12:49:59;101858.66;;;28.26;28.44
64388;BME280;50709;52.648;4.764;2023-06-14T12:52:24;101852.63;;;27.39;30.12
64388;BME280;50709;52.648;4.764;2023-06-14T12:55:10;101843.44;;;27.43;28.63
64388;BME280;50709;52.648;4.764;2023-06-14T12:57:35;101894.88;;;28.02;29.51
64388;BME280;50709;52.648;4.764;2023-06-14T13:00:02;101898.28;;;27.55;29.48
64388;BME280;50709;52.648;4.764;2023-06-14T13:02:28;101896.25;;;27.43;29.50
64388;BME280;50709;52.648;4.764;2023-06-14T13:04:56;101887.59;;;27.87;29.69
64388;BME280;50709;52.648;4.764;2023-06-14T13:07:23;101881.06;;;27.93;29.87
64388;BME280;50709;52.648;4.764;2023-06-14T13:09:50;101900.06;;;27.55;28.04
64388;BME280;50709;52.648;4.764;2023-06-14T13:12:15;101881.16;;;27.23;28.23
64388;BME280;50709;52.648;4.764;2023-06-14T13:14:42;101896.94;;;27.46;29.25